sensor_id;sensor_type;location;lat;lon;timestamp;P1;durP1;ratioP1;P2;durP2;ratioP2
58252;SDS011;44050;48.884;8.762;2023-02-01T00:00:32;0.37;;;0.37;;
58252;SDS011;44050;48.884;8.762;2023-02-01T00:03:04;1.27;;;1.17;;
58252;SDS011;44050;48.884;8.762;2023-02-01T00:05:36;1.25;;;1.15;;
58252;SDS011;44050;48.884;8.762;2023-02-01T00:08:07;1.42;;;1.33;;
58252;SDS011;44050;48.884;8.762;2023-02-01T00:10:39;2.17;;;0.80;;
58252;SDS011;44050;48.884;8.762;2023-02-01T00:13:09;0.83;;;0.83;;
58252;SDS011;44050;48.884;8.762;2023-02-01T00:15:40;3.80;;;1.00;;
58252;SDS011;44050;48.884;8.762;2023-02-01T00:18:11;1.17;;;0.93;;
58252;SDS011;44050;48.884;8.762;2023-02-01T00:20:45;1.48;;;0.82;;
58252;SDS011;44050;48.884;8.762;2023-02-01T00:23:16;0.45;;;0.45;;
58252;SDS011;44050;48.884;8.762;2023-02-01T00:25:46;0.82;;;0.80;;
58252;SDS011;44050;48.884;8.762;2023-02-01T00:28:17;1.00;;;0.70;;
58252;SDS011;44050;48.884;8.762;2023-02-01T00:30:55;0.50;;;0.50;;
58252;SDS011;44050;48.884;8.762;2023-02-01T00:33:26;0.40;;;0.40;;
58252;SDS011;44050;48.884;8.762;2023-02-01T00:36:00;0.70;;;0.70;;
58252;SDS011;44050;48.884;8.762;2023-02-01T00:38:33;0.90;;;0.75;;
58252;SDS011;44050;48.884;8.762;2023-02-01T00:41:05;0.30;;;0.30;;
58252;SDS011;44050;48.884;8.762;2023-02-01T00:43:36;0.80;;;0.80;;
58252;SDS011;44050;48.884;8.762;2023-02-01T00:46:07;4.32;;;0.65;;
58252;SDS011;44050;48.884;8.762;2023-02-01T00:48:38;1.08;;;0.60;;
58252;SDS011;44050;48.884;8.762;2023-02-01T00:51:10;2.08;;;1.13;;
58252;SDS011;44050;48.884;8.762;2023-02-01T00:53:41;0.52;;;0.52;;
58252;SDS011;44050;48.884;8.762;2023-02-01T00:56:12;0.35;;;0.35;;
58252;SDS011;44050;48.884;8.762;2023-02-01T00:58:44;0.40;;;0.40;;
58252;SDS011;44050;48.884;8.762;2023-02-01T01:03:47;0.43;;;0.43;;
58252;SDS011;44050;48.884;8.762;2023-02-01T01:06:19;0.35;;;0.35;;
58252;SDS011;44050;48.884;8.762;2023-02-01T01:08:51;0.55;;;0.45;;
58252;SDS011;44050;48.884;8.762;2023-02-01T01:11:25;0.57;;;0.40;;
58252;SDS011;44050;48.884;8.762;2023-02-01T01:13:57;0.82;;;0.82;;
58252;SDS011;44050;48.884;8.762;2023-02-01T01:18:59;0.50;;;0.50;;
58252;SDS011;44050;48.884;8.762;2023-02-01T01:21:30;0.20;;;0.20;;
58252;SDS011;44050;48.884;8.762;2023-02-01T01:24:00;0.22;;;0.22;;
58252;SDS011;44050;48.884;8.762;2023-02-01T01:26:31;0.55;;;0.35;;
58252;SDS011;44050;48.884;8.762;2023-02-01T01:29:02;0.37;;;0.37;;
58252;SDS011;44050;48.884;8.762;2023-02-01T01:31:33;0.50;;;0.50;;
58252;SDS011;44050;48.884;8.762;2023-02-01T01:34:04;1.92;;;0.70;;
58252;SDS011;44050;48.884;8.762;2023-02-01T01:36:35;0.68;;;0.68;;
58252;SDS011;44050;48.884;8.762;2023-02-01T01:39:06;0.63;;;0.63;;
58252;SDS011;44050;48.884;8.762;2023-02-01T01:41:38;0.60;;;0.60;;
58252;SDS011;44050;48.884;8.762;2023-02-01T01:47:08;1.35;;;0.73;;
58252;SDS011;44050;48.884;8.762;2023-02-01T01:49:40;2.80;;;0.95;;
58252;SDS011;44050;48.884;8.762;2023-02-01T01:52:11;0.40;;;0.40;;
58252;SDS011;44050;48.884;8.762;2023-02-01T01:54:43;0.70;;;0.70;;
58252;SDS011;44050;48.884;8.762;2023-02-01T01:57:16;0.85;;;0.73;;
58252;SDS011;44050;48.884;8.762;2023-02-01T02:00:10;0.70;;;0.47;;
58252;SDS011;44050;48.884;8.762;2023-02-01T02:02:48;0.52;;;0.52;;
58252;SDS011;44050;48.884;8.762;2023-02-01T02:05:22;0.73;;;0.40;;
58252;SDS011;44050;48.884;8.762;2023-02-01T02:07:53;0.95;;;0.70;;
58252;SDS011;44050;48.884;8.762;2023-02-01T02:10:27;2.78;;;0.80;;
58252;SDS011;44050;48.884;8.762;2023-02-01T02:13:18;1.05;;;0.73;;
58252;SDS011;44050;48.884;8.762;2023-02-01T02:18:44;0.53;;;0.53;;
58252;SDS011;44050;48.884;8.762;2023-02-01T02:27:00;0.40;;;0.30;;
58252;SDS011;44050;48.884;8.762;2023-02-01T02:45:50;1.83;;;0.60;;
58252;SDS011;44050;48.884;8.762;2023-02-01T02:48:44;0.40;;;0.40;;
58252;SDS011;44050;48.884;8.762;2023-02-01T02:51:20;0.60;;;0.60;;
58252;SDS011;44050;48.884;8.762;2023-02-01T02:54:17;0.30;;;0.30;;
58252;SDS011;44050;48.884;8.762;2023-02-01T02:57:08;0.57;;;0.57;;
58252;SDS011;44050;48.884;8.762;2023-02-01T03:00:00;0.73;;;0.60;;
58252;SDS011;44050;48.884;8.762;2023-02-01T03:02:50;0.35;;;0.32;;
58252;SDS011;44050;48.884;8.762;2023-02-01T03:05:41;0.63;;;0.60;;
58252;SDS011;44050;48.884;8.762;2023-02-01T03:11:17;1.13;;;0.52;;
58252;SDS011;44050;48.884;8.762;2023-02-01T03:13:51;0.82;;;0.70;;
58252;SDS011;44050;48.884;8.762;2023-02-01T03:16:27;0.50;;;0.50;;
58252;SDS011;44050;48.884;8.762;2023-02-01T03:24:03;0.63;;;0.63;;
58252;SDS011;44050;48.884;8.762;2023-02-01T03:26:36;0.25;;;0.25;;
58252;SDS011;44050;48.884;8.762;2023-02-01T03:29:21;0.52;;;0.52;;
58252;SDS011;44050;48.884;8.762;2023-02-01T03:31:54;0.75;;;0.75;;
58252;SDS011;44050;48.884;8.762;2023-02-01T03:34:25;2.00;;;0.80;;
58252;SDS011;44050;48.884;8.762;2023-02-01T03:36:58;0.73;;;0.70;;
58252;SDS011;44050;48.884;8.762;2023-02-01T03:42:24;0.40;;;0.40;;
58252;SDS011;44050;48.884;8.762;2023-02-01T03:45:01;1.05;;;0.47;;
58252;SDS011;44050;48.884;8.762;2023-02-01T03:47:35;0.25;;;0.25;;
58252;SDS011;44050;48.884;8.762;2023-02-01T03:50:08;0.50;;;0.50;;
58252;SDS011;44050;48.884;8.762;2023-02-01T03:52:42;0.75;;;0.45;;
58252;SDS011;44050;48.884;8.762;2023-02-01T03:55:15;0.52;;;0.52;;
58252;SDS011;44050;48.884;8.762;2023-02-01T03:57:55;0.82;;;0.45;;
58252;SDS011;44050;48.884;8.762;2023-02-01T04:00:27;0.82;;;0.82;;
58252;SDS011;44050;48.884;8.762;2023-02-01T04:03:00;0.93;;;0.93;;
58252;SDS011;44050;48.884;8.762;2023-02-01T04:05:32;0.65;;;0.60;;
58252;SDS011;44050;48.884;8.762;2023-02-01T04:08:07;0.60;;;0.60;;
58252;SDS011;44050;48.884;8.762;2023-02-01T04:10:37;3.45;;;0.95;;
58252;SDS011;44050;48.884;8.762;2023-02-01T04:13:08;0.70;;;0.70;;
58252;SDS011;44050;48.884;8.762;2023-02-01T04:15:39;0.70;;;0.70;;
58252;SDS011;44050;48.884;8.762;2023-02-01T04:18:10;0.77;;;0.77;;
58252;SDS011;44050;48.884;8.762;2023-02-01T04:20:42;0.57;;;0.57;;
58252;SDS011;44050;48.884;8.762;2023-02-01T04:23:13;0.85;;;0.73;;
58252;SDS011;44050;48.884;8.762;2023-02-01T04:25:46;1.02;;;0.55;;
58252;SDS011;44050;48.884;8.762;2023-02-01T04:28:16;0.63;;;0.38;;
58252;SDS011;44050;48.884;8.762;2023-02-01T04:30:47;0.53;;;0.50;;
58252;SDS011;44050;48.884;8.762;2023-02-01T04:33:18;1.38;;;0.60;;
58252;SDS011;44050;48.884;8.762;2023-02-01T04:35:49;0.30;;;0.30;;
58252;SDS011;44050;48.884;8.762;2023-02-01T04:38:19;0.70;;;0.70;;
58252;SDS011;44050;48.884;8.762;2023-02-01T04:40:50;0.55;;;0.55;;
58252;SDS011;44050;48.884;8.762;2023-02-01T04:43:21;0.60;;;0.55;;
58252;SDS011;44050;48.884;8.762;2023-02-01T04:45:51;0.80;;;0.80;;
58252;SDS011;44050;48.884;8.762;2023-02-01T04:48:22;0.47;;;0.47;;
58252;SDS011;44050;48.884;8.762;2023-02-01T04:50:53;0.50;;;0.50;;
58252;SDS011;44050;48.884;8.762;2023-02-01T04:53:24;0.40;;;0.40;;
58252;SDS011;44050;48.884;8.762;2023-02-01T04:55:55;2.70;;;0.50;;
58252;SDS011;44050;48.884;8.762;2023-02-01T04:58:26;2.72;;;0.70;;
58252;SDS011;44050;48.884;8.762;2023-02-01T05:00:57;1.15;;;0.70;;
58252;SDS011;44050;48.884;8.762;2023-02-01T05:03:28;0.40;;;0.40;;
58252;SDS011;44050;48.884;8.762;2023-02-01T05:05:59;0.50;;;0.50;;
58252;SDS011;44050;48.884;8.762;2023-02-01T05:08:31;1.25;;;0.90;;
58252;SDS011;44050;48.884;8.762;2023-02-01T05:11:02;0.80;;;0.70;;
58252;SDS011;44050;48.884;8.762;2023-02-01T05:13:33;1.77;;;0.50;;
58252;SDS011;44050;48.884;8.762;2023-02-01T05:16:19;2.92;;;1.38;;
58252;SDS011;44050;48.884;8.762;2023-02-01T05:18:50;0.63;;;0.50;;
58252;SDS011;44050;48.884;8.762;2023-02-01T05:21:21;1.58;;;0.45;;
58252;SDS011;44050;48.884;8.762;2023-02-01T05:23:51;0.75;;;0.70;;
58252;SDS011;44050;48.884;8.762;2023-02-01T05:26:40;3.92;;;0.57;;
58252;SDS011;44050;48.884;8.762;2023-02-01T05:29:11;3.83;;;0.88;;
58252;SDS011;44050;48.884;8.762;2023-02-01T05:31:43;1.52;;;1.40;;
58252;SDS011;44050;48.884;8.762;2023-02-01T05:34:14;1.17;;;1.10;;
58252;SDS011;44050;48.884;8.762;2023-02-01T05:36:45;0.80;;;0.80;;
58252;SDS011;44050;48.884;8.762;2023-02-01T05:39:16;0.85;;;0.85;;
58252;SDS011;44050;48.884;8.762;2023-02-01T05:41:47;0.47;;;0.47;;
58252;SDS011;44050;48.884;8.762;2023-02-01T05:44:17;1.47;;;0.40;;
58252;SDS011;44050;48.884;8.762;2023-02-01T05:46:48;0.98;;;0.93;;
58252;SDS011;44050;48.884;8.762;2023-02-01T05:49:19;2.05;;;1.35;;
58252;SDS011;44050;48.884;8.762;2023-02-01T05:51:50;0.90;;;0.90;;
58252;SDS011;44050;48.884;8.762;2023-02-01T05:54:20;0.87;;;0.87;;
58252;SDS011;44050;48.884;8.762;2023-02-01T05:56:51;1.15;;;1.00;;
58252;SDS011;44050;48.884;8.762;2023-02-01T05:59:22;2.42;;;1.63;;
58252;SDS011;44050;48.884;8.762;2023-02-01T06:01:52;1.73;;;1.33;;
58252;SDS011;44050;48.884;8.762;2023-02-01T06:04:23;1.77;;;1.00;;
58252;SDS011;44050;48.884;8.762;2023-02-01T06:06:54;1.13;;;1.13;;
58252;SDS011;44050;48.884;8.762;2023-02-01T06:09:25;1.95;;;1.13;;
58252;SDS011;44050;48.884;8.762;2023-02-01T06:11:55;1.08;;;0.98;;
58252;SDS011;44050;48.884;8.762;2023-02-01T06:14:26;1.10;;;1.10;;
58252;SDS011;44050;48.884;8.762;2023-02-01T06:16:57;2.88;;;2.10;;
58252;SDS011;44050;48.884;8.762;2023-02-01T06:19:28;7.00;;;1.90;;
58252;SDS011;44050;48.884;8.762;2023-02-01T06:21:59;6.47;;;2.25;;
58252;SDS011;44050;48.884;8.762;2023-02-01T06:24:30;4.25;;;1.95;;
58252;SDS011;44050;48.884;8.762;2023-02-01T06:27:01;8.95;;;2.17;;
58252;SDS011;44050;48.884;8.762;2023-02-01T06:29:32;1.40;;;1.30;;
58252;SDS011;44050;48.884;8.762;2023-02-01T06:32:02;5.47;;;2.80;;
58252;SDS011;44050;48.884;8.762;2023-02-01T06:34:33;4.75;;;2.30;;
58252;SDS011;44050;48.884;8.762;2023-02-01T06:37:04;5.20;;;1.77;;
58252;SDS011;44050;48.884;8.762;2023-02-01T06:39:35;7.07;;;2.92;;
58252;SDS011;44050;48.884;8.762;2023-02-01T06:42:06;3.35;;;1.08;;
58252;SDS011;44050;48.884;8.762;2023-02-01T06:44:47;5.95;;;3.28;;
58252;SDS011;44050;48.884;8.762;2023-02-01T06:47:18;3.00;;;2.13;;
58252;SDS011;44050;48.884;8.762;2023-02-01T06:49:49;3.93;;;1.87;;
58252;SDS011;44050;48.884;8.762;2023-02-01T06:52:19;5.80;;;1.88;;
58252;SDS011;44050;48.884;8.762;2023-02-01T06:54:50;3.53;;;2.45;;
58252;SDS011;44050;48.884;8.762;2023-02-01T06:57:21;2.78;;;2.58;;
58252;SDS011;44050;48.884;8.762;2023-02-01T06:59:52;2.65;;;2.30;;
58252;SDS011;44050;48.884;8.762;2023-02-01T07:02:22;3.63;;;2.20;;
58252;SDS011;44050;48.884;8.762;2023-02-01T07:04:53;2.58;;;2.10;;
58252;SDS011;44050;48.884;8.762;2023-02-01T07:07:24;3.13;;;2.70;;
58252;SDS011;44050;48.884;8.762;2023-02-01T07:09:54;5.25;;;2.65;;
58252;SDS011;44050;48.884;8.762;2023-02-01T07:12:25;4.85;;;2.35;;
58252;SDS011;44050;48.884;8.762;2023-02-01T07:14:56;5.00;;;2.42;;
58252;SDS011;44050;48.884;8.762;2023-02-01T07:17:27;4.55;;;2.75;;
58252;SDS011;44050;48.884;8.762;2023-02-01T07:19:59;3.35;;;1.95;;
58252;SDS011;44050;48.884;8.762;2023-02-01T07:22:32;8.27;;;3.35;;
58252;SDS011;44050;48.884;8.762;2023-02-01T07:25:06;4.90;;;2.40;;
58252;SDS011;44050;48.884;8.762;2023-02-01T07:27:37;3.30;;;2.58;;
58252;SDS011;44050;48.884;8.762;2023-02-01T07:30:11;3.35;;;2.33;;
58252;SDS011;44050;48.884;8.762;2023-02-01T07:32:42;2.45;;;2.25;;
58252;SDS011;44050;48.884;8.762;2023-02-01T07:35:13;5.32;;;1.90;;
58252;SDS011;44050;48.884;8.762;2023-02-01T07:37:44;2.30;;;2.08;;
58252;SDS011;44050;48.884;8.762;2023-02-01T07:40:15;4.37;;;2.60;;
58252;SDS011;44050;48.884;8.762;2023-02-01T07:42:46;4.68;;;2.03;;
58252;SDS011;44050;48.884;8.762;2023-02-01T07:45:18;2.38;;;1.98;;
58252;SDS011;44050;48.884;8.762;2023-02-01T07:47:51;5.25;;;2.67;;
58252;SDS011;44050;48.884;8.762;2023-02-01T07:52:52;2.70;;;2.50;;
58252;SDS011;44050;48.884;8.762;2023-02-01T07:55:23;2.83;;;2.08;;
58252;SDS011;44050;48.884;8.762;2023-02-01T07:57:58;2.28;;;2.15;;
58252;SDS011;44050;48.884;8.762;2023-02-01T08:00:29;4.38;;;2.90;;
58252;SDS011;44050;48.884;8.762;2023-02-01T08:03:18;7.40;;;3.17;;
58252;SDS011;44050;48.884;8.762;2023-02-01T08:05:53;5.88;;;2.35;;
58252;SDS011;44050;48.884;8.762;2023-02-01T08:08:24;7.40;;;2.78;;
58252;SDS011;44050;48.884;8.762;2023-02-01T08:10:58;10.55;;;2.47;;
58252;SDS011;44050;48.884;8.762;2023-02-01T08:13:29;4.53;;;1.70;;
58252;SDS011;44050;48.884;8.762;2023-02-01T08:16:04;2.90;;;2.05;;
58252;SDS011;44050;48.884;8.762;2023-02-01T08:18:36;5.10;;;1.70;;
58252;SDS011;44050;48.884;8.762;2023-02-01T08:21:18;3.33;;;2.38;;
58252;SDS011;44050;48.884;8.762;2023-02-01T08:23:49;4.22;;;2.20;;
58252;SDS011;44050;48.884;8.762;2023-02-01T08:26:21;7.13;;;2.08;;
58252;SDS011;44050;48.884;8.762;2023-02-01T08:29:00;4.80;;;1.90;;
58252;SDS011;44050;48.884;8.762;2023-02-01T08:31:33;7.47;;;2.22;;
58252;SDS011;44050;48.884;8.762;2023-02-01T08:34:04;8.15;;;3.40;;
58252;SDS011;44050;48.884;8.762;2023-02-01T08:36:35;9.18;;;2.45;;
58252;SDS011;44050;48.884;8.762;2023-02-01T08:39:06;11.98;;;3.78;;
58252;SDS011;44050;48.884;8.762;2023-02-01T08:41:39;6.47;;;3.05;;
58252;SDS011;44050;48.884;8.762;2023-02-01T08:44:12;9.32;;;3.25;;
58252;SDS011;44050;48.884;8.762;2023-02-01T08:46:43;5.30;;;2.00;;
58252;SDS011;44050;48.884;8.762;2023-02-01T08:49:14;4.22;;;3.20;;
58252;SDS011;44050;48.884;8.762;2023-02-01T08:51:44;8.23;;;2.33;;
58252;SDS011;44050;48.884;8.762;2023-02-01T08:54:15;7.28;;;2.28;;
58252;SDS011;44050;48.884;8.762;2023-02-01T08:56:46;3.58;;;2.25;;
58252;SDS011;44050;48.884;8.762;2023-02-01T08:59:17;2.67;;;1.95;;
58252;SDS011;44050;48.884;8.762;2023-02-01T09:01:47;8.20;;;2.03;;
58252;SDS011;44050;48.884;8.762;2023-02-01T09:04:18;3.83;;;1.85;;
58252;SDS011;44050;48.884;8.762;2023-02-01T09:06:49;7.22;;;2.33;;
58252;SDS011;44050;48.884;8.762;2023-02-01T09:09:19;5.05;;;2.65;;
58252;SDS011;44050;48.884;8.762;2023-02-01T09:11:50;10.57;;;2.13;;
58252;SDS011;44050;48.884;8.762;2023-02-01T09:14:21;6.72;;;2.13;;
58252;SDS011;44050;48.884;8.762;2023-02-01T09:16:52;4.28;;;2.55;;
58252;SDS011;44050;48.884;8.762;2023-02-01T09:19:23;7.57;;;2.38;;
58252;SDS011;44050;48.884;8.762;2023-02-01T09:21:53;3.58;;;1.23;;
58252;SDS011;44050;48.884;8.762;2023-02-01T09:24:24;4.70;;;2.03;;
58252;SDS011;44050;48.884;8.762;2023-02-01T09:26:55;16.58;;;4.32;;
58252;SDS011;44050;48.884;8.762;2023-02-01T09:29:26;6.72;;;2.58;;
58252;SDS011;44050;48.884;8.762;2023-02-01T09:31:57;5.80;;;2.20;;
58252;SDS011;44050;48.884;8.762;2023-02-01T09:34:27;2.10;;;1.63;;
58252;SDS011;44050;48.884;8.762;2023-02-01T09:36:58;4.43;;;2.38;;
58252;SDS011;44050;48.884;8.762;2023-02-01T09:39:29;11.35;;;2.80;;
58252;SDS011;44050;48.884;8.762;2023-02-01T09:47:08;4.00;;;2.00;;
58252;SDS011;44050;48.884;8.762;2023-02-01T09:49:47;4.20;;;1.45;;
58252;SDS011;44050;48.884;8.762;2023-02-01T09:52:23;8.10;;;2.83;;
58252;SDS011;44050;48.884;8.762;2023-02-01T09:55:01;4.70;;;1.75;;
58252;SDS011;44050;48.884;8.762;2023-02-01T09:57:40;6.65;;;2.55;;
58252;SDS011;44050;48.884;8.762;2023-02-01T10:00:16;7.15;;;2.17;;
58252;SDS011;44050;48.884;8.762;2023-02-01T10:02:49;10.18;;;2.63;;
58252;SDS011;44050;48.884;8.762;2023-02-01T10:05:30;4.38;;;1.65;;
58252;SDS011;44050;48.884;8.762;2023-02-01T10:08:11;6.53;;;1.90;;
58252;SDS011;44050;48.884;8.762;2023-02-01T10:10:46;4.00;;;1.55;;
58252;SDS011;44050;48.884;8.762;2023-02-01T10:16:00;2.47;;;1.73;;
58252;SDS011;44050;48.884;8.762;2023-02-01T10:26:40;7.90;;;2.20;;
58252;SDS011;44050;48.884;8.762;2023-02-01T10:29:18;11.70;;;3.03;;
58252;SDS011;44050;48.884;8.762;2023-02-01T10:31:49;6.38;;;1.73;;
58252;SDS011;44050;48.884;8.762;2023-02-01T10:34:21;13.10;;;2.67;;
58252;SDS011;44050;48.884;8.762;2023-02-01T10:36:57;4.32;;;1.83;;
58252;SDS011;44050;48.884;8.762;2023-02-01T10:39:30;5.07;;;1.95;;
58252;SDS011;44050;48.884;8.762;2023-02-01T10:42:01;2.67;;;2.03;;
58252;SDS011;44050;48.884;8.762;2023-02-01T10:44:31;6.50;;;2.50;;
58252;SDS011;44050;48.884;8.762;2023-02-01T10:47:08;2.25;;;1.52;;
58252;SDS011;44050;48.884;8.762;2023-02-01T10:55:46;11.57;;;2.90;;
58252;SDS011;44050;48.884;8.762;2023-02-01T10:57:55;6.38;;;1.83;;
58252;SDS011;44050;48.884;8.762;2023-02-01T11:00:27;6.95;;;1.85;;
58252;SDS011;44050;48.884;8.762;2023-02-01T11:05:28;4.07;;;1.57;;
58252;SDS011;44050;48.884;8.762;2023-02-01T11:08:14;9.93;;;2.45;;
58252;SDS011;44050;48.884;8.762;2023-02-01T11:10:47;5.35;;;3.17;;
58252;SDS011;44050;48.884;8.762;2023-02-01T11:13:18;5.72;;;1.88;;
58252;SDS011;44050;48.884;8.762;2023-02-01T11:15:54;5.93;;;2.55;;
58252;SDS011;44050;48.884;8.762;2023-02-01T11:18:26;3.80;;;1.77;;
58252;SDS011;44050;48.884;8.762;2023-02-01T11:20:57;5.18;;;1.73;;
58252;SDS011;44050;48.884;8.762;2023-02-01T11:23:29;5.95;;;3.10;;
58252;SDS011;44050;48.884;8.762;2023-02-01T11:26:02;5.70;;;2.15;;
58252;SDS011;44050;48.884;8.762;2023-02-01T11:28:38;4.28;;;1.45;;
58252;SDS011;44050;48.884;8.762;2023-02-01T11:31:10;6.85;;;1.58;;
58252;SDS011;44050;48.884;8.762;2023-02-01T11:33:50;11.52;;;2.83;;
58252;SDS011;44050;48.884;8.762;2023-02-01T11:36:23;8.93;;;1.83;;
58252;SDS011;44050;48.884;8.762;2023-02-01T11:39:10;2.90;;;1.55;;
58252;SDS011;44050;48.884;8.762;2023-02-01T11:42:05;5.90;;;1.38;;
58252;SDS011;44050;48.884;8.762;2023-02-01T11:44:43;4.97;;;2.10;;
58252;SDS011;44050;48.884;8.762;2023-02-01T11:47:18;4.45;;;2.03;;
58252;SDS011;44050;48.884;8.762;2023-02-01T11:49:50;4.35;;;1.80;;
58252;SDS011;44050;48.884;8.762;2023-02-01T11:58:12;3.95;;;2.03;;
58252;SDS011;44050;48.884;8.762;2023-02-01T12:00:54;3.00;;;2.30;;
58252;SDS011;44050;48.884;8.762;2023-02-01T12:06:10;9.97;;;3.03;;
58252;SDS011;44050;48.884;8.762;2023-02-01T12:11:41;7.07;;;2.25;;
58252;SDS011;44050;48.884;8.762;2023-02-01T12:19:31;7.75;;;2.70;;
58252;SDS011;44050;48.884;8.762;2023-02-01T12:46:21;2.30;;;1.17;;
58252;SDS011;44050;48.884;8.762;2023-02-01T12:51:33;5.15;;;2.60;;
58252;SDS011;44050;48.884;8.762;2023-02-01T12:56:59;6.43;;;2.22;;
58252;SDS011;44050;48.884;8.762;2023-02-01T12:59:34;4.50;;;2.30;;
58252;SDS011;44050;48.884;8.762;2023-02-01T13:02:23;4.88;;;1.70;;
58252;SDS011;44050;48.884;8.762;2023-02-01T13:07:27;2.88;;;1.70;;
58252;SDS011;44050;48.884;8.762;2023-02-01T13:12:59;6.55;;;2.08;;
58252;SDS011;44050;48.884;8.762;2023-02-01T13:18:03;5.30;;;1.50;;
58252;SDS011;44050;48.884;8.762;2023-02-01T13:25:46;6.07;;;2.78;;
58252;SDS011;44050;48.884;8.762;2023-02-01T13:28:34;2.17;;;1.15;;
58252;SDS011;44050;48.884;8.762;2023-02-01T13:33:43;5.65;;;1.50;;
58252;SDS011;44050;48.884;8.762;2023-02-01T13:36:20;5.68;;;1.63;;
58252;SDS011;44050;48.884;8.762;2023-02-01T13:39:19;6.25;;;1.70;;
58252;SDS011;44050;48.884;8.762;2023-02-01T13:42:04;5.38;;;2.58;;
58252;SDS011;44050;48.884;8.762;2023-02-01T13:47:21;4.78;;;1.85;;
58252;SDS011;44050;48.884;8.762;2023-02-01T13:49:54;1.75;;;1.65;;
58252;SDS011;44050;48.884;8.762;2023-02-01T13:52:32;3.38;;;1.50;;
58252;SDS011;44050;48.884;8.762;2023-02-01T13:55:22;1.67;;;1.58;;
58252;SDS011;44050;48.884;8.762;2023-02-01T14:00:37;5.93;;;2.58;;
58252;SDS011;44050;48.884;8.762;2023-02-01T14:03:10;6.65;;;2.20;;
58252;SDS011;44050;48.884;8.762;2023-02-01T14:08:22;2.38;;;2.10;;
58252;SDS011;44050;48.884;8.762;2023-02-01T14:13:31;2.85;;;1.55;;
58252;SDS011;44050;48.884;8.762;2023-02-01T14:24:01;4.53;;;2.13;;
58252;SDS011;44050;48.884;8.762;2023-02-01T14:26:51;7.30;;;1.45;;
58252;SDS011;44050;48.884;8.762;2023-02-01T14:29:25;9.18;;;2.22;;
58252;SDS011;44050;48.884;8.762;2023-02-01T14:32:00;3.47;;;2.45;;
58252;SDS011;44050;48.884;8.762;2023-02-01T14:39:54;6.18;;;2.55;;
58252;SDS011;44050;48.884;8.762;2023-02-01T14:50:36;9.05;;;2.83;;
58252;SDS011;44050;48.884;8.762;2023-02-01T14:58:23;11.48;;;2.72;;
58252;SDS011;44050;48.884;8.762;2023-02-01T15:01:00;8.80;;;3.05;;
58252;SDS011;44050;48.884;8.762;2023-02-01T15:03:48;6.70;;;2.38;;
58252;SDS011;44050;48.884;8.762;2023-02-01T15:06:23;4.45;;;2.88;;
58252;SDS011;44050;48.884;8.762;2023-02-01T15:08:54;2.28;;;1.98;;
58252;SDS011;44050;48.884;8.762;2023-02-01T15:11:26;3.90;;;1.85;;
58252;SDS011;44050;48.884;8.762;2023-02-01T15:13:57;7.00;;;1.85;;
58252;SDS011;44050;48.884;8.762;2023-02-01T15:16:30;4.85;;;1.98;;
58252;SDS011;44050;48.884;8.762;2023-02-01T15:19:07;3.95;;;1.60;;
58252;SDS011;44050;48.884;8.762;2023-02-01T15:21:42;2.15;;;0.73;;
58252;SDS011;44050;48.884;8.762;2023-02-01T15:24:26;2.45;;;1.63;;
58252;SDS011;44050;48.884;8.762;2023-02-01T15:27:02;10.68;;;1.38;;
58252;SDS011;44050;48.884;8.762;2023-02-01T15:29:34;13.40;;;3.47;;
58252;SDS011;44050;48.884;8.762;2023-02-01T15:32:05;6.95;;;1.23;;
58252;SDS011;44050;48.884;8.762;2023-02-01T15:37:07;6.00;;;1.40;;
58252;SDS011;44050;48.884;8.762;2023-02-01T15:39:37;7.00;;;2.10;;
58252;SDS011;44050;48.884;8.762;2023-02-01T15:42:28;9.73;;;2.28;;
58252;SDS011;44050;48.884;8.762;2023-02-01T15:44:59;8.13;;;2.17;;
58252;SDS011;44050;48.884;8.762;2023-02-01T15:47:30;2.22;;;1.60;;
58252;SDS011;44050;48.884;8.762;2023-02-01T15:50:01;4.53;;;1.58;;
58252;SDS011;44050;48.884;8.762;2023-02-01T15:55:07;5.10;;;2.75;;
58252;SDS011;44050;48.884;8.762;2023-02-01T15:57:40;10.70;;;3.00;;
58252;SDS011;44050;48.884;8.762;2023-02-01T16:02:43;2.83;;;1.35;;
58252;SDS011;44050;48.884;8.762;2023-02-01T16:05:40;5.82;;;1.88;;
58252;SDS011;44050;48.884;8.762;2023-02-01T16:08:14;3.35;;;1.95;;
58252;SDS011;44050;48.884;8.762;2023-02-01T16:10:46;3.28;;;1.48;;
58252;SDS011;44050;48.884;8.762;2023-02-01T16:13:17;1.75;;;1.40;;
58252;SDS011;44050;48.884;8.762;2023-02-01T16:15:48;6.15;;;2.10;;
58252;SDS011;44050;48.884;8.762;2023-02-01T16:18:19;6.68;;;3.03;;
58252;SDS011;44050;48.884;8.762;2023-02-01T16:20:50;6.10;;;1.90;;
58252;SDS011;44050;48.884;8.762;2023-02-01T16:23:21;5.05;;;2.63;;
58252;SDS011;44050;48.884;8.762;2023-02-01T16:25:52;8.65;;;1.83;;
58252;SDS011;44050;48.884;8.762;2023-02-01T16:28:22;13.35;;;3.55;;
58252;SDS011;44050;48.884;8.762;2023-02-01T16:30:53;9.73;;;3.30;;
58252;SDS011;44050;48.884;8.762;2023-02-01T16:33:24;12.50;;;4.82;;
58252;SDS011;44050;48.884;8.762;2023-02-01T16:35:55;7.93;;;3.17;;
58252;SDS011;44050;48.884;8.762;2023-02-01T16:38:27;5.10;;;2.90;;
58252;SDS011;44050;48.884;8.762;2023-02-01T16:41:15;5.32;;;2.30;;
58252;SDS011;44050;48.884;8.762;2023-02-01T16:43:59;3.33;;;2.28;;
58252;SDS011;44050;48.884;8.762;2023-02-01T16:46:32;5.93;;;3.03;;
58252;SDS011;44050;48.884;8.762;2023-02-01T16:49:05;2.15;;;1.92;;
58252;SDS011;44050;48.884;8.762;2023-02-01T16:51:42;4.22;;;2.60;;
58252;SDS011;44050;48.884;8.762;2023-02-01T16:54:38;2.50;;;1.45;;
58252;SDS011;44050;48.884;8.762;2023-02-01T16:57:12;6.32;;;2.67;;
58252;SDS011;44050;48.884;8.762;2023-02-01T16:59:43;6.97;;;2.40;;
58252;SDS011;44050;48.884;8.762;2023-02-01T17:02:16;7.00;;;1.50;;
58252;SDS011;44050;48.884;8.762;2023-02-01T17:04:47;4.28;;;1.52;;
58252;SDS011;44050;48.884;8.762;2023-02-01T17:07:19;2.33;;;2.13;;
58252;SDS011;44050;48.884;8.762;2023-02-01T17:09:52;11.88;;;3.22;;
58252;SDS011;44050;48.884;8.762;2023-02-01T17:12:32;7.45;;;1.73;;
58252;SDS011;44050;48.884;8.762;2023-02-01T17:15:04;8.18;;;2.53;;
58252;SDS011;44050;48.884;8.762;2023-02-01T17:17:36;4.90;;;1.38;;
58252;SDS011;44050;48.884;8.762;2023-02-01T17:20:20;8.43;;;2.13;;
58252;SDS011;44050;48.884;8.762;2023-02-01T17:22:51;3.65;;;2.35;;
58252;SDS011;44050;48.884;8.762;2023-02-01T17:25:22;6.03;;;2.88;;
58252;SDS011;44050;48.884;8.762;2023-02-01T17:27:53;3.97;;;2.20;;
58252;SDS011;44050;48.884;8.762;2023-02-01T17:30:23;6.57;;;2.25;;
58252;SDS011;44050;48.884;8.762;2023-02-01T17:32:54;6.68;;;1.67;;
58252;SDS011;44050;48.884;8.762;2023-02-01T17:35:27;18.38;;;2.58;;
58252;SDS011;44050;48.884;8.762;2023-02-01T17:37:58;4.63;;;2.28;;
58252;SDS011;44050;48.884;8.762;2023-02-01T17:40:28;1.38;;;1.30;;
58252;SDS011;44050;48.884;8.762;2023-02-01T17:43:01;12.48;;;1.83;;
58252;SDS011;44050;48.884;8.762;2023-02-01T17:48:03;5.32;;;2.10;;
58252;SDS011;44050;48.884;8.762;2023-02-01T17:50:35;2.35;;;1.20;;
58252;SDS011;44050;48.884;8.762;2023-02-01T17:53:06;17.55;;;3.25;;
58252;SDS011;44050;48.884;8.762;2023-02-01T17:55:43;8.30;;;2.08;;
58252;SDS011;44050;48.884;8.762;2023-02-01T17:58:17;4.10;;;2.75;;
58252;SDS011;44050;48.884;8.762;2023-02-01T18:00:47;2.67;;;1.88;;
58252;SDS011;44050;48.884;8.762;2023-02-01T18:03:23;4.13;;;1.60;;
58252;SDS011;44050;48.884;8.762;2023-02-01T18:05:55;11.43;;;3.30;;
58252;SDS011;44050;48.884;8.762;2023-02-01T18:08:26;7.30;;;2.03;;
58252;SDS011;44050;48.884;8.762;2023-02-01T18:11:00;6.32;;;2.90;;
58252;SDS011;44050;48.884;8.762;2023-02-01T18:13:31;3.72;;;1.67;;
58252;SDS011;44050;48.884;8.762;2023-02-01T18:16:02;8.60;;;2.15;;
58252;SDS011;44050;48.884;8.762;2023-02-01T18:18:34;8.57;;;1.85;;
58252;SDS011;44050;48.884;8.762;2023-02-01T18:21:13;6.38;;;2.22;;
58252;SDS011;44050;48.884;8.762;2023-02-01T18:23:44;6.93;;;2.75;;
58252;SDS011;44050;48.884;8.762;2023-02-01T18:26:16;4.25;;;1.58;;